createdAt,value
2023-05-06T00:00:36.794Z,16.40
2023-05-06T00:03:15.025Z,16.31
2023-05-06T00:05:46.634Z,16.34
2023-05-06T00:08:15.781Z,16.42
2023-05-06T00:10:45.553Z,16.37
2023-05-06T00:13:15.042Z,16.29
2023-05-06T00:15:44.451Z,16.13
2023-05-06T00:18:15.373Z,15.97
2023-05-06T00:20:44.359Z,15.89
2023-05-06T00:23:12.976Z,15.90
2023-05-06T00:25:42.833Z,15.87
2023-05-06T00:28:11.767Z,15.82
2023-05-06T00:30:41.197Z,15.83
2023-05-06T00:33:10.234Z,15.89
2023-05-06T00:35:39.486Z,15.94
2023-05-06T00:38:11.367Z,15.93
2023-05-06T00:40:41.097Z,15.98
2023-05-06T00:43:10.670Z,16.01
2023-05-06T00:45:40.076Z,15.86
2023-05-06T00:48:10.356Z,15.82
2023-05-06T00:50:40.332Z,15.81
2023-05-06T00:53:11.227Z,15.72
2023-05-06T00:55:40.899Z,15.44
2023-05-06T00:58:09.973Z,15.27
2023-05-06T01:00:39.222Z,15.26
2023-05-06T01:03:09.009Z,15.24
2023-05-06T01:06:08.205Z,15.25
2023-05-06T01:09:03.586Z,15.10
2023-05-06T01:11:56.102Z,15.10
2023-05-06T01:14:33.947Z,15.16
2023-05-06T01:17:08.326Z,15.25
2023-05-06T01:19:52.057Z,15.31
2023-05-06T01:22:21.657Z,15.30
2023-05-06T01:24:51.369Z,15.42
2023-05-06T01:27:21.414Z,15.47
2023-05-06T01:29:51.113Z,15.39
2023-05-06T01:32:20.006Z,15.33
2023-05-06T01:35:08.106Z,15.26
2023-05-06T01:38:02.119Z,15.06
2023-05-06T01:40:33.942Z,14.86
2023-05-06T01:43:04.913Z,14.73
2023-05-06T01:45:37.247Z,14.65
2023-05-06T01:48:07.302Z,14.61
2023-05-06T01:50:37.384Z,14.56
2023-05-06T01:53:06.386Z,14.56
2023-05-06T01:55:35.525Z,14.54
2023-05-06T01:58:04.639Z,14.52
2023-05-06T02:00:34.462Z,14.50
2023-05-06T02:03:03.625Z,14.47
2023-05-06T02:05:32.714Z,14.43
2023-05-06T02:08:02.449Z,14.34
2023-05-06T02:10:31.280Z,14.29
2023-05-06T02:13:00.292Z,14.30
2023-05-06T02:15:29.248Z,14.35
2023-05-06T02:18:00.335Z,14.33
2023-05-06T02:20:29.213Z,14.25
2023-05-06T02:22:58.091Z,14.21
2023-05-06T02:25:27.081Z,14.22
2023-05-06T02:27:55.854Z,14.21
2023-05-06T02:30:25.207Z,14.20
2023-05-06T02:32:54.083Z,14.15
2023-05-06T02:35:23.000Z,14.04
2023-05-06T02:37:51.939Z,14.07
2023-05-06T02:40:20.959Z,14.10
2023-05-06T02:42:49.977Z,14.08
2023-05-06T02:45:18.963Z,14.01
2023-05-06T02:47:47.694Z,13.94
2023-05-06T02:50:17.291Z,13.91
2023-05-06T02:52:46.455Z,13.88
2023-05-06T02:55:15.480Z,13.81
2023-05-06T02:57:44.803Z,13.77
2023-05-06T03:00:15.627Z,13.76
2023-05-06T03:02:44.996Z,13.77
2023-05-06T03:05:13.814Z,13.76
2023-05-06T03:07:42.597Z,13.71
2023-05-06T03:10:12.053Z,13.73
2023-05-06T03:12:41.490Z,13.73
2023-05-06T03:15:11.748Z,13.66
2023-05-06T03:17:40.872Z,13.60
2023-05-06T03:20:10.680Z,13.55
2023-05-06T03:22:40.028Z,13.48
2023-05-06T03:25:09.903Z,13.48
2023-05-06T03:27:39.489Z,13.43
2023-05-06T03:30:09.410Z,13.41
2023-05-06T03:32:39.232Z,13.33
2023-05-06T03:35:09.175Z,13.30
2023-05-06T03:37:38.656Z,13.27
2023-05-06T03:40:08.738Z,13.25
2023-05-06T03:42:37.823Z,13.24
2023-05-06T03:45:07.909Z,13.18
2023-05-06T03:47:37.212Z,13.13
2023-05-06T03:50:07.053Z,13.09
2023-05-06T03:52:36.518Z,12.98
2023-05-06T03:55:05.751Z,12.89
2023-05-06T03:57:35.329Z,12.83
2023-05-06T04:00:04.755Z,12.84
2023-05-06T04:02:36.613Z,12.87
2023-05-06T04:05:06.169Z,12.85
2023-05-06T04:07:35.099Z,12.82
2023-05-06T04:10:04.127Z,12.81
2023-05-06T04:12:33.316Z,12.81
2023-05-06T04:15:02.232Z,12.79
2023-05-06T04:17:31.768Z,12.74
2023-05-06T04:20:07.354Z,12.73
2023-05-06T04:22:36.144Z,12.77
2023-05-06T04:25:06.073Z,12.79
2023-05-06T04:27:35.352Z,12.78
2023-05-06T04:30:04.597Z,12.78
2023-05-06T04:32:34.709Z,12.80
2023-05-06T04:35:04.329Z,12.81
2023-05-06T04:37:33.636Z,12.91
2023-05-06T04:40:03.428Z,12.92
2023-05-06T04:42:33.153Z,12.92
2023-05-06T04:45:02.878Z,12.95
2023-05-06T04:47:31.789Z,13.02
2023-05-06T04:50:00.919Z,13.10
2023-05-06T04:52:30.834Z,13.13
2023-05-06T04:55:00.034Z,13.14
2023-05-06T04:57:29.197Z,13.17
2023-05-06T04:59:58.340Z,13.27
2023-05-06T05:02:27.623Z,13.35
2023-05-06T05:04:57.245Z,13.43
2023-05-06T05:07:27.129Z,13.48
2023-05-06T05:09:56.090Z,13.54
2023-05-06T05:12:24.975Z,13.66
2023-05-06T05:14:53.938Z,13.81
2023-05-06T05:17:23.347Z,13.94
2023-05-06T05:19:53.364Z,14.06
2023-05-06T05:22:22.636Z,14.23
2023-05-06T05:24:51.876Z,14.32
2023-05-06T05:27:21.266Z,14.41
2023-05-06T05:29:50.689Z,14.47
2023-05-06T05:32:20.687Z,14.59
2023-05-06T05:34:49.995Z,14.81
2023-05-06T05:37:19.151Z,15.04
2023-05-06T05:39:48.213Z,15.24
2023-05-06T05:42:17.736Z,15.34
2023-05-06T05:44:46.799Z,15.44
2023-05-06T05:47:16.787Z,15.62
2023-05-06T05:49:46.101Z,15.86
2023-05-06T05:52:15.446Z,16.05
2023-05-06T05:54:44.443Z,16.18
2023-05-06T05:57:14.052Z,16.33
2023-05-06T05:59:43.381Z,16.46
2023-05-06T06:02:12.759Z,16.52
2023-05-06T06:04:42.378Z,16.59
2023-05-06T06:07:11.625Z,16.69
2023-05-06T06:09:40.893Z,16.85
2023-05-06T06:12:10.417Z,17.02
2023-05-06T06:14:40.802Z,17.09
2023-05-06T06:17:10.438Z,17.08
2023-05-06T06:19:39.595Z,17.16
2023-05-06T06:22:08.991Z,17.29
2023-05-06T06:24:37.934Z,17.43
2023-05-06T06:27:08.521Z,17.61
2023-05-06T06:29:37.577Z,17.73
2023-05-06T06:32:07.342Z,17.91
2023-05-06T06:34:36.957Z,18.03
2023-05-06T06:37:07.849Z,18.13
2023-05-06T06:39:37.218Z,18.28
2023-05-06T06:42:07.521Z,18.52
2023-05-06T06:44:37.297Z,18.76
2023-05-06T06:47:07.435Z,19.00
2023-05-06T06:49:38.152Z,19.19
2023-05-06T06:52:07.440Z,19.40
2023-05-06T06:54:39.345Z,19.67
2023-05-06T06:57:09.342Z,20.02
2023-05-06T06:59:38.821Z,20.62
2023-05-06T07:02:07.934Z,21.21
2023-05-06T07:04:38.231Z,21.72
2023-05-06T07:07:09.323Z,22.33
2023-05-06T07:09:41.219Z,22.92
2023-05-06T07:12:14.081Z,23.38
2023-05-06T07:14:45.167Z,23.81
2023-05-06T07:17:17.108Z,24.08
2023-05-06T07:19:47.336Z,24.51
2023-05-06T07:22:18.943Z,24.88
2023-05-06T07:24:48.735Z,25.20
2023-05-06T07:27:19.163Z,25.50
2023-05-06T07:29:50.756Z,25.93
2023-05-06T07:32:22.718Z,26.17
2023-05-06T07:34:53.509Z,26.09
2023-05-06T07:37:22.870Z,26.20
2023-05-06T07:39:52.014Z,26.49
2023-05-06T07:42:22.951Z,26.79
2023-05-06T07:44:52.307Z,27.24
2023-05-06T07:47:30.608Z,27.42
2023-05-06T07:50:01.141Z,27.37
2023-05-06T07:52:31.685Z,27.17
2023-05-06T07:55:01.403Z,27.38
2023-05-06T07:57:30.978Z,27.61
2023-05-06T08:00:00.321Z,28.02
2023-05-06T08:02:30.989Z,28.54
2023-05-06T08:05:01.059Z,28.97
2023-05-06T08:07:30.699Z,29.18
2023-05-06T08:10:01.713Z,29.66
2023-05-06T08:12:31.175Z,29.91
2023-05-06T08:15:01.220Z,30.06
2023-05-06T08:17:30.796Z,30.19
2023-05-06T08:20:00.186Z,30.57
2023-05-06T08:22:29.474Z,30.98
2023-05-06T08:24:59.547Z,31.05
2023-05-06T08:27:31.446Z,31.03
2023-05-06T08:30:01.274Z,31.07
2023-05-06T08:32:31.611Z,31.22
2023-05-06T08:35:01.334Z,31.08
2023-05-06T08:37:31.247Z,30.87
2023-05-06T08:40:01.715Z,31.01
2023-05-06T08:42:31.752Z,31.45
2023-05-06T08:45:00.672Z,31.89
2023-05-06T08:47:30.245Z,32.32
2023-05-06T08:49:59.839Z,32.74
2023-05-06T08:52:30.124Z,33.12
2023-05-06T08:55:02.626Z,33.34
2023-05-06T08:57:33.701Z,33.69
2023-05-06T09:00:03.616Z,33.89
2023-05-06T09:02:32.986Z,34.14
2023-05-06T09:05:05.816Z,34.05
2023-05-06T09:07:36.925Z,33.88
2023-05-06T09:10:18.566Z,34.08
2023-05-06T09:12:48.097Z,34.26
2023-05-06T09:15:17.929Z,34.38
2023-05-06T09:17:48.566Z,34.53
2023-05-06T09:20:19.094Z,34.65
2023-05-06T09:22:50.382Z,34.96
2023-05-06T09:25:20.135Z,35.16
2023-05-06T09:27:50.548Z,35.18
2023-05-06T09:30:20.766Z,35.21
2023-05-06T09:32:50.489Z,35.47
2023-05-06T09:35:19.673Z,35.60
2023-05-06T09:37:49.210Z,35.66
2023-05-06T09:40:18.983Z,35.60
2023-05-06T09:42:51.057Z,35.76
2023-05-06T09:45:20.302Z,35.87
2023-05-06T09:47:50.263Z,36.03
2023-05-06T09:50:22.260Z,36.56
2023-05-06T09:52:51.785Z,36.95
2023-05-06T09:55:22.874Z,37.38
2023-05-06T09:57:52.503Z,37.52
2023-05-06T10:00:28.536Z,37.64
2023-05-06T10:02:59.733Z,38.14
2023-05-06T10:05:31.353Z,38.31
2023-05-06T10:08:01.365Z,38.54
2023-05-06T10:10:34.243Z,38.53
2023-05-06T10:13:07.364Z,38.28
2023-05-06T10:15:40.379Z,38.50
2023-05-06T10:18:10.386Z,38.62
2023-05-06T10:20:43.013Z,38.59
2023-05-06T10:23:27.549Z,38.68
2023-05-06T10:25:59.602Z,38.84
2023-05-06T10:28:31.941Z,38.66
2023-05-06T10:31:05.956Z,38.22
2023-05-06T10:33:35.650Z,37.90
2023-05-06T10:36:28.537Z,37.71
2023-05-06T10:39:04.385Z,37.81
2023-05-06T10:41:39.687Z,38.12
2023-05-06T10:44:10.633Z,37.98
2023-05-06T10:47:12.574Z,37.72
2023-05-06T10:49:42.817Z,37.72
2023-05-06T10:52:17.786Z,38.30
2023-05-06T10:54:51.679Z,38.85
2023-05-06T10:57:28.040Z,39.61
2023-05-06T11:00:00.434Z,40.24
2023-05-06T11:02:32.078Z,40.00
2023-05-06T11:05:02.684Z,39.57
2023-05-06T11:07:32.417Z,39.59
2023-05-06T11:10:07.375Z,39.35
2023-05-06T11:12:53.089Z,39.61
2023-05-06T11:15:27.501Z,39.78
2023-05-06T11:17:58.624Z,39.91
2023-05-06T11:20:28.633Z,39.82
2023-05-06T11:22:59.845Z,39.67
2023-05-06T11:25:45.711Z,39.66
2023-05-06T11:28:17.231Z,39.89
2023-05-06T11:30:56.040Z,39.75
2023-05-06T11:33:31.073Z,39.99
2023-05-06T11:36:05.099Z,40.32
2023-05-06T11:38:48.592Z,40.51
2023-05-06T11:41:20.594Z,40.74
2023-05-06T11:43:53.015Z,40.93
2023-05-06T11:46:29.230Z,41.09
2023-05-06T11:49:02.718Z,40.99
2023-05-06T11:51:37.305Z,40.84
2023-05-06T11:54:11.611Z,40.82
2023-05-06T11:56:56.868Z,40.92
2023-05-06T11:59:40.556Z,40.75
2023-05-06T12:02:16.182Z,40.90
2023-05-06T12:04:55.315Z,41.08
2023-05-06T12:07:24.763Z,41.07
2023-05-06T12:09:54.268Z,41.23
2023-05-06T12:12:25.647Z,41.31
2023-05-06T12:14:55.111Z,41.41
2023-05-06T12:17:26.446Z,41.25
2023-05-06T12:19:56.721Z,40.85
2023-05-06T12:22:26.509Z,40.48
2023-05-06T12:24:56.322Z,40.33
2023-05-06T12:27:36.163Z,40.36
2023-05-06T12:30:09.785Z,40.65
2023-05-06T12:32:58.961Z,40.46
2023-05-06T12:35:33.856Z,40.07
2023-05-06T12:38:17.223Z,40.18
2023-05-06T12:40:55.140Z,40.17
2023-05-06T12:43:32.002Z,40.46
2023-05-06T12:46:06.192Z,40.81
2023-05-06T12:48:35.973Z,40.77
2023-05-06T12:51:20.036Z,40.69
2023-05-06T12:53:48.983Z,40.58
2023-05-06T12:56:18.054Z,40.69
2023-05-06T12:59:00.837Z,40.65
2023-05-06T13:01:30.393Z,40.56
2023-05-06T13:03:59.937Z,40.91
2023-05-06T13:06:29.117Z,41.04
2023-05-06T13:08:59.636Z,40.94
2023-05-06T13:11:29.078Z,40.62
2023-05-06T13:13:58.455Z,40.71
2023-05-06T13:16:30.922Z,40.66
2023-05-06T13:19:00.517Z,40.40
2023-05-06T13:21:30.199Z,40.31
2023-05-06T13:24:01.105Z,40.11
2023-05-06T13:26:30.383Z,39.91
2023-05-06T13:28:59.365Z,40.20
2023-05-06T13:31:29.309Z,39.98
2023-05-06T13:33:58.796Z,39.90
2023-05-06T13:36:28.207Z,39.53
2023-05-06T13:38:58.878Z,39.34
2023-05-06T13:41:28.309Z,39.42
2023-05-06T13:43:58.232Z,39.30
2023-05-06T13:46:27.774Z,39.39
2023-05-06T13:48:57.260Z,39.48
2023-05-06T13:51:30.972Z,39.51
2023-05-06T13:54:02.198Z,39.38
2023-05-06T13:56:31.313Z,39.07
2023-05-06T13:59:00.800Z,38.99
2023-05-06T14:01:30.232Z,39.06
2023-05-06T14:03:59.150Z,39.15
2023-05-06T14:06:28.594Z,38.96
2023-05-06T14:08:58.260Z,39.07
2023-05-06T14:11:28.630Z,39.13
2023-05-06T14:13:57.850Z,39.19
2023-05-06T14:16:26.936Z,38.88
2023-05-06T14:18:56.613Z,38.74
2023-05-06T14:21:26.086Z,38.55
2023-05-06T14:23:55.110Z,38.14
2023-05-06T14:26:24.623Z,37.92
2023-05-06T14:28:54.803Z,37.90
2023-05-06T14:31:24.578Z,37.76
2023-05-06T14:33:54.369Z,37.66
2023-05-06T14:36:26.320Z,37.62
2023-05-06T14:38:56.732Z,37.59
2023-05-06T14:41:26.283Z,37.77
2023-05-06T14:43:56.259Z,37.66
2023-05-06T14:46:29.422Z,37.45
2023-05-06T14:49:00.004Z,37.27
2023-05-06T14:51:29.559Z,37.38
2023-05-06T14:54:00.376Z,37.30
2023-05-06T14:56:29.731Z,36.93
2023-05-06T14:59:00.741Z,36.72
2023-05-06T15:01:32.601Z,36.33
2023-05-06T15:04:03.310Z,35.94
2023-05-06T15:06:32.629Z,35.53
2023-05-06T15:09:03.077Z,35.29
2023-05-06T15:11:33.291Z,35.16
2023-05-06T15:14:02.781Z,34.93
2023-05-06T15:16:32.086Z,34.76
2023-05-06T15:19:00.948Z,34.41
2023-05-06T15:21:30.731Z,34.24
2023-05-06T15:24:02.339Z,34.18
2023-05-06T15:26:32.964Z,33.91
2023-05-06T15:29:03.057Z,33.58
2023-05-06T15:31:33.547Z,33.35
2023-05-06T15:34:03.077Z,33.10
2023-05-06T15:36:32.812Z,32.92
2023-05-06T15:39:02.400Z,32.81
2023-05-06T15:41:36.465Z,32.74
2023-05-06T15:44:06.427Z,32.63
2023-05-06T15:46:36.125Z,32.56
2023-05-06T15:51:38.359Z,32.40
2023-05-06T15:54:07.468Z,32.47
2023-05-06T15:56:40.691Z,32.36
2023-05-06T15:59:10.467Z,32.33
2023-05-06T16:04:12.210Z,32.02
2023-05-06T16:06:41.906Z,31.90
2023-05-06T16:09:11.085Z,31.77
2023-05-06T16:11:40.365Z,31.62
2023-05-06T16:14:09.906Z,31.41
2023-05-06T16:16:40.560Z,31.30
2023-05-06T16:19:10.165Z,31.21
2023-05-06T16:21:39.634Z,31.21
2023-05-06T16:24:09.178Z,31.20
2023-05-06T16:26:38.520Z,31.18
2023-05-06T16:29:08.168Z,31.12
2023-05-06T16:31:38.488Z,31.06
2023-05-06T16:34:08.154Z,31.00
2023-05-06T16:36:37.915Z,30.95
2023-05-06T16:39:08.668Z,30.87
2023-05-06T16:41:39.096Z,30.73
2023-05-06T16:44:09.847Z,30.60
2023-05-06T16:46:41.082Z,30.43
2023-05-06T16:49:13.725Z,30.27
2023-05-06T16:51:43.671Z,30.17
2023-05-06T16:54:13.168Z,30.10
2023-05-06T16:56:51.411Z,29.90
2023-05-06T16:59:24.683Z,29.72
2023-05-06T17:01:54.198Z,29.67
2023-05-06T17:04:28.264Z,29.60
2023-05-06T17:06:57.920Z,29.56
2023-05-06T17:09:27.398Z,29.46
2023-05-06T17:11:56.715Z,29.29
2023-05-06T17:14:28.064Z,29.08
2023-05-06T17:16:58.135Z,28.94
2023-05-06T17:19:27.751Z,28.79
2023-05-06T17:21:57.588Z,28.62
2023-05-06T17:24:27.172Z,28.53
2023-05-06T17:26:58.251Z,28.44
2023-05-06T17:29:27.710Z,28.38
2023-05-06T17:31:58.207Z,28.31
2023-05-06T17:34:27.532Z,28.21
2023-05-06T17:36:57.101Z,28.11
2023-05-06T17:39:27.882Z,27.99
2023-05-06T17:41:58.216Z,27.83
2023-05-06T17:44:29.816Z,27.68
2023-05-06T17:47:01.378Z,27.53
2023-05-06T17:49:33.170Z,27.38
2023-05-06T17:52:03.159Z,27.25
2023-05-06T17:54:36.105Z,27.20
2023-05-06T17:57:06.293Z,27.14
2023-05-06T17:59:38.086Z,26.91
2023-05-06T18:02:11.189Z,26.57
2023-05-06T18:04:40.308Z,26.32
2023-05-06T18:07:12.874Z,26.13
2023-05-06T18:09:43.145Z,25.92
2023-05-06T18:12:14.006Z,25.73
2023-05-06T18:14:44.516Z,25.54
2023-05-06T18:17:14.804Z,25.40
2023-05-06T18:19:44.986Z,25.22
2023-05-06T18:22:14.905Z,25.10
2023-05-06T18:24:45.489Z,24.97
2023-05-06T18:27:15.299Z,24.80
2023-05-06T18:29:44.438Z,24.59
2023-05-06T18:32:15.301Z,24.40
2023-05-06T18:34:44.955Z,24.28
2023-05-06T18:37:14.429Z,24.15
2023-05-06T18:39:43.725Z,24.06
2023-05-06T18:42:13.131Z,23.85
2023-05-06T18:44:44.024Z,23.59
2023-05-06T18:47:13.843Z,23.24
2023-05-06T18:49:44.867Z,23.07
2023-05-06T18:52:19.641Z,22.95
2023-05-06T18:54:50.104Z,22.83
2023-05-06T18:57:25.052Z,22.65
2023-05-06T18:59:57.528Z,22.47
2023-05-06T19:02:27.417Z,22.32
2023-05-06T19:05:02.203Z,22.21
2023-05-06T19:07:36.673Z,22.04
2023-05-06T19:10:08.660Z,21.84
2023-05-06T19:12:42.189Z,21.63
2023-05-06T19:15:15.795Z,21.45
2023-05-06T19:17:48.985Z,21.24
2023-05-06T19:20:20.674Z,21.16
2023-05-06T19:22:51.193Z,21.07
2023-05-06T19:25:25.145Z,20.93
2023-05-06T19:27:56.511Z,20.85
2023-05-06T19:30:33.503Z,20.67
2023-05-06T19:33:05.609Z,20.62
2023-05-06T19:35:42.361Z,20.62
2023-05-06T19:38:12.973Z,20.62
2023-05-06T19:40:45.769Z,20.58
2023-05-06T19:43:16.906Z,20.44
2023-05-06T19:45:47.612Z,20.38
2023-05-06T19:48:20.020Z,20.29
2023-05-06T19:50:52.178Z,20.28
2023-05-06T19:53:25.040Z,20.18
2023-05-06T19:55:56.810Z,20.13
2023-05-06T19:58:28.237Z,20.02
2023-05-06T20:00:58.337Z,19.97
2023-05-06T20:03:31.900Z,19.95
2023-05-06T20:06:04.068Z,19.97
2023-05-06T20:08:34.294Z,20.03
2023-05-06T20:11:04.921Z,20.09
2023-05-06T20:13:35.147Z,20.11
2023-05-06T20:16:04.869Z,20.02
2023-05-06T20:18:34.444Z,19.87
2023-05-06T20:21:05.489Z,19.74
2023-05-06T20:23:35.676Z,19.74
2023-05-06T20:26:06.564Z,19.74
2023-05-06T20:28:40.041Z,19.71
2023-05-06T20:31:09.599Z,19.67
2023-05-06T20:33:38.991Z,19.65
2023-05-06T20:36:09.813Z,19.60
2023-05-06T20:38:39.032Z,19.56
2023-05-06T20:41:08.285Z,19.50
2023-05-06T20:43:37.651Z,19.47
2023-05-06T20:46:07.270Z,19.41
2023-05-06T20:48:36.966Z,19.34
2023-05-06T20:51:06.478Z,19.31
2023-05-06T20:53:35.850Z,19.28
2023-05-06T20:56:16.787Z,19.22
2023-05-06T20:58:45.801Z,19.18
2023-05-06T21:01:19.078Z,19.16
2023-05-06T21:03:50.349Z,19.07
2023-05-06T21:06:20.821Z,19.04
2023-05-06T21:08:52.320Z,18.96
2023-05-06T21:11:22.152Z,18.91
2023-05-06T21:13:51.267Z,18.80
2023-05-06T21:16:21.564Z,18.74
2023-05-06T21:18:50.518Z,18.72
2023-05-06T21:21:20.377Z,18.71
2023-05-06T21:23:49.561Z,18.64
2023-05-06T21:26:19.212Z,18.58
2023-05-06T21:28:52.914Z,18.46
2023-05-06T21:31:24.701Z,18.42
2023-05-06T21:34:00.694Z,18.39
2023-05-06T21:36:29.937Z,18.35
2023-05-06T21:39:02.364Z,18.27
2023-05-06T21:41:36.009Z,18.20
2023-05-06T21:44:06.712Z,18.19
2023-05-06T21:46:38.190Z,18.17
2023-05-06T21:49:07.938Z,18.10
2023-05-06T21:51:39.949Z,18.03
2023-05-06T21:54:09.054Z,18.02
2023-05-06T21:56:38.220Z,17.95
2023-05-06T21:59:08.380Z,18.04
2023-05-06T22:01:37.771Z,18.11
2023-05-06T22:04:11.836Z,18.11
2023-05-06T22:06:41.174Z,18.10
2023-05-06T22:09:10.167Z,18.04
2023-05-06T22:11:40.104Z,18.04
2023-05-06T22:14:10.006Z,17.97
2023-05-06T22:16:41.386Z,17.87
2023-05-06T22:19:10.749Z,17.86
2023-05-06T22:21:39.680Z,17.83
2023-05-06T22:24:09.221Z,17.80
2023-05-06T22:26:38.443Z,17.76
2023-05-06T22:29:07.804Z,17.66
2023-05-06T22:31:38.286Z,17.61
2023-05-06T22:34:07.477Z,17.61
2023-05-06T22:36:36.840Z,17.62
2023-05-06T22:39:07.949Z,17.58
2023-05-06T22:41:37.076Z,17.47
2023-05-06T22:44:06.988Z,17.45
2023-05-06T22:46:35.899Z,17.45
2023-05-06T22:49:05.051Z,17.34
2023-05-06T22:51:34.895Z,17.28
2023-05-06T22:54:04.242Z,17.26
2023-05-06T22:56:34.189Z,17.11
2023-05-06T22:59:03.316Z,17.05
2023-05-06T23:01:33.394Z,17.07
2023-05-06T23:04:02.953Z,17.04
2023-05-06T23:06:32.357Z,17.01
2023-05-06T23:09:01.471Z,17.07
2023-05-06T23:11:31.556Z,17.02
2023-05-06T23:14:01.699Z,16.92
2023-05-06T23:16:31.195Z,16.85
2023-05-06T23:19:01.097Z,16.74
2023-05-06T23:21:30.269Z,16.76
2023-05-06T23:23:59.903Z,16.85
2023-05-06T23:26:29.550Z,16.93
2023-05-06T23:28:59.645Z,16.92
2023-05-06T23:31:29.868Z,16.86
2023-05-06T23:33:59.099Z,16.70
2023-05-06T23:36:28.232Z,16.57
2023-05-06T23:38:57.820Z,16.56
2023-05-06T23:41:28.688Z,16.54
2023-05-06T23:43:58.119Z,16.51
2023-05-06T23:46:27.737Z,16.49
2023-05-06T23:48:57.212Z,16.39
2023-05-06T23:51:27.020Z,16.34
2023-05-06T23:53:56.595Z,16.43
2023-05-06T23:56:27.363Z,16.53
2023-05-06T23:58:56.689Z,16.57
